createdAt,value
2018-05-12T00:01:25.563Z,16.53
2018-05-12T00:04:29.585Z,16.26
2018-05-12T00:07:33.104Z,16.12
2018-05-12T00:10:37.103Z,15.85
2018-05-12T00:13:41.062Z,15.70
2018-05-12T00:16:46.148Z,15.56
2018-05-12T00:19:50.802Z,15.50
2018-05-12T00:22:55.189Z,15.38
2018-05-12T00:25:59.211Z,15.36
2018-05-12T00:29:02.866Z,15.33
2018-05-12T00:32:06.273Z,15.37
2018-05-12T00:35:09.933Z,15.35
2018-05-12T00:38:13.770Z,15.42
2018-05-12T00:41:17.758Z,15.49
2018-05-12T00:44:20.938Z,15.56
2018-05-12T00:47:25.802Z,15.50
2018-05-12T00:50:29.872Z,15.31
2018-05-12T00:53:33.965Z,15.12
2018-05-12T00:56:37.473Z,14.99
2018-05-12T00:59:40.970Z,15.00
2018-05-12T01:02:44.479Z,14.91
2018-05-12T01:05:48.077Z,14.77
2018-05-12T01:08:51.977Z,14.65
2018-05-12T01:11:56.524Z,14.60
2018-05-12T01:15:00.124Z,14.43
2018-05-12T01:18:03.540Z,14.33
2018-05-12T01:21:07.825Z,14.22
2018-05-12T01:24:11.037Z,14.18
2018-05-12T01:27:15.484Z,14.12
2018-05-12T01:30:19.887Z,14.00
2018-05-12T01:33:23.288Z,14.06
2018-05-12T01:36:26.631Z,14.13
2018-05-12T01:39:29.935Z,14.26
2018-05-12T01:42:33.234Z,14.32
2018-05-12T01:45:36.627Z,14.29
2018-05-12T01:48:40.045Z,14.15
2018-05-12T01:51:44.308Z,13.95
2018-05-12T01:54:47.713Z,13.82
2018-05-12T01:57:52.177Z,13.73
2018-05-12T02:00:55.468Z,13.71
2018-05-12T02:03:59.253Z,13.69
2018-05-12T02:07:02.592Z,13.65
2018-05-12T02:10:06.901Z,13.81
2018-05-12T02:13:10.254Z,13.85
2018-05-12T02:16:13.619Z,13.83
2018-05-12T02:19:16.906Z,13.85
2018-05-12T02:22:20.859Z,13.93
2018-05-12T02:25:24.243Z,13.87
2018-05-12T02:28:27.631Z,13.79
2018-05-12T02:31:32.056Z,13.84
2018-05-12T02:34:35.458Z,13.91
2018-05-12T02:37:38.747Z,13.84
2018-05-12T02:40:42.287Z,13.80
2018-05-12T02:43:46.975Z,13.81
2018-05-12T02:46:50.982Z,13.86
2018-05-12T02:49:54.616Z,13.86
2018-05-12T02:52:57.997Z,13.83
2018-05-12T02:56:01.301Z,13.90
2018-05-12T02:59:05.227Z,13.92
2018-05-12T03:02:08.515Z,13.91
2018-05-12T03:05:11.935Z,13.82
2018-05-12T03:08:15.300Z,13.72
2018-05-12T03:11:18.585Z,13.71
2018-05-12T03:14:23.314Z,13.60
2018-05-12T03:17:27.622Z,13.61
2018-05-12T03:20:30.954Z,13.64
2018-05-12T03:23:34.375Z,13.56
2018-05-12T03:26:37.705Z,13.46
2018-05-12T03:29:41.038Z,13.55
2018-05-12T03:32:45.010Z,13.62
2018-05-12T03:35:48.917Z,13.56
2018-05-12T03:38:53.009Z,13.49
2018-05-12T03:41:56.564Z,13.38
2018-05-12T03:45:01.486Z,13.44
2018-05-12T03:48:07.040Z,13.45
2018-05-12T03:51:10.633Z,13.46
2018-05-12T03:54:14.647Z,13.50
2018-05-12T03:57:18.175Z,13.42
2018-05-12T04:00:21.392Z,13.35
2018-05-12T04:03:24.802Z,13.42
2018-05-12T04:06:39.466Z,13.36
2018-05-12T04:09:56.550Z,13.32
2018-05-12T04:12:59.973Z,13.32
2018-05-12T04:16:03.372Z,13.41
2018-05-12T04:19:06.717Z,13.49
2018-05-12T04:22:10.191Z,13.61
2018-05-12T04:25:13.584Z,13.68
2018-05-12T04:28:16.984Z,13.74
2018-05-12T04:31:20.510Z,13.84
2018-05-12T04:34:23.912Z,13.88
2018-05-12T04:37:27.231Z,13.92
2018-05-12T04:40:30.585Z,13.98
2018-05-12T04:43:33.973Z,14.04
2018-05-12T04:46:38.432Z,14.09
2018-05-12T04:49:41.712Z,14.08
2018-05-12T04:52:45.511Z,14.13
2018-05-12T04:55:48.810Z,14.15
2018-05-12T04:58:52.137Z,14.18
2018-05-12T05:01:55.501Z,14.23
2018-05-12T05:04:59.129Z,14.28
2018-05-12T05:08:02.412Z,14.28
2018-05-12T05:11:05.783Z,14.29
2018-05-12T05:14:09.118Z,14.22
2018-05-12T05:17:12.418Z,14.14
2018-05-12T05:20:15.667Z,14.22
2018-05-12T05:23:19.332Z,14.17
2018-05-12T05:26:22.685Z,14.22
2018-05-12T05:29:26.043Z,14.35
2018-05-12T05:32:29.410Z,14.48
2018-05-12T05:35:33.067Z,14.44
2018-05-12T05:38:36.418Z,14.55
2018-05-12T05:41:39.724Z,14.74
2018-05-12T05:44:42.912Z,14.96
2018-05-12T05:47:46.118Z,15.08
2018-05-12T05:50:49.435Z,15.22
2018-05-12T05:53:52.879Z,15.40
2018-05-12T05:56:57.337Z,15.63
2018-05-12T06:00:01.095Z,15.82
2018-05-12T06:03:04.427Z,16.07
2018-05-12T06:06:07.850Z,16.21
2018-05-12T06:09:11.143Z,16.13
2018-05-12T06:12:14.539Z,16.11
2018-05-12T06:15:17.983Z,16.14
2018-05-12T06:18:22.360Z,16.17
2018-05-12T06:21:25.754Z,16.22
2018-05-12T06:24:29.058Z,16.19
2018-05-12T06:27:32.288Z,16.26
2018-05-12T06:30:35.637Z,16.43
2018-05-12T06:33:39.060Z,16.60
2018-05-12T06:36:46.738Z,16.73
2018-05-12T06:39:49.986Z,16.68
2018-05-12T06:42:53.388Z,16.73
2018-05-12T06:45:57.473Z,16.84
2018-05-12T06:49:00.716Z,16.96
2018-05-12T06:52:04.069Z,17.03
2018-05-12T06:55:07.479Z,17.06
2018-05-12T06:58:11.641Z,17.20
2018-05-12T07:01:14.936Z,17.32
2018-05-12T07:04:18.299Z,17.40
2018-05-12T07:07:21.535Z,17.42
2018-05-12T07:10:25.547Z,17.60
2018-05-12T07:13:28.904Z,17.77
2018-05-12T07:16:32.324Z,17.92
2018-05-12T07:19:35.623Z,18.12
2018-05-12T07:22:39.184Z,18.27
2018-05-12T07:25:42.527Z,18.45
2018-05-12T07:28:45.755Z,18.62
2018-05-12T07:31:49.095Z,18.84
2018-05-12T07:34:53.429Z,19.05
2018-05-12T07:37:57.615Z,19.17
2018-05-12T07:41:00.948Z,19.06
2018-05-12T07:44:04.386Z,18.90
2018-05-12T07:47:09.760Z,19.09
2018-05-12T07:50:13.212Z,19.09
2018-05-12T07:53:17.772Z,19.24
2018-05-12T07:56:28.820Z,19.38
2018-05-12T07:59:32.101Z,19.47
2018-05-12T08:02:35.559Z,19.54
2018-05-12T08:05:38.888Z,19.65
2018-05-12T08:08:42.859Z,19.69
2018-05-12T08:11:46.220Z,19.76
2018-05-12T08:14:49.546Z,19.80
2018-05-12T08:17:56.135Z,19.93
2018-05-12T08:21:01.533Z,19.80
2018-05-12T08:24:04.901Z,20.05
2018-05-12T08:27:08.223Z,20.16
2018-05-12T08:30:11.552Z,20.02
2018-05-12T08:33:15.976Z,20.09
2018-05-12T08:36:19.171Z,20.23
2018-05-12T08:39:22.488Z,20.52
2018-05-12T08:42:26.801Z,20.89
2018-05-12T08:45:30.144Z,20.96
2018-05-12T08:48:33.405Z,21.21
2018-05-12T08:51:36.670Z,21.19
2018-05-12T08:54:40.992Z,20.91
2018-05-12T08:57:44.215Z,20.73
2018-05-12T09:00:48.096Z,20.86
2018-05-12T09:03:51.455Z,21.19
2018-05-12T09:06:55.743Z,21.29
2018-05-12T09:09:59.614Z,21.17
2018-05-12T09:13:02.857Z,21.27
2018-05-12T09:16:06.271Z,21.30
2018-05-12T09:19:09.612Z,21.57
2018-05-12T09:22:13.912Z,21.55
2018-05-12T09:25:17.226Z,21.80
2018-05-12T09:28:20.428Z,22.10
2018-05-12T09:31:23.728Z,22.56
2018-05-12T09:34:27.061Z,22.86
2018-05-12T09:37:31.140Z,22.85
2018-05-12T09:40:34.461Z,22.96
2018-05-12T09:43:37.825Z,22.91
2018-05-12T09:46:42.319Z,22.97
2018-05-12T09:49:45.657Z,22.89
2018-05-12T09:52:51.001Z,23.07
2018-05-12T09:55:54.407Z,23.25
2018-05-12T09:58:57.717Z,23.42
2018-05-12T10:02:01.168Z,23.54
2018-05-12T10:05:05.060Z,23.75
2018-05-12T10:08:08.484Z,23.93
2018-05-12T10:11:21.720Z,23.83
2018-05-12T10:14:25.477Z,23.90
2018-05-12T10:17:29.516Z,23.85
2018-05-12T10:20:32.868Z,24.00
2018-05-12T10:23:36.112Z,24.08
2018-05-12T10:26:39.421Z,24.20
2018-05-12T10:29:42.715Z,24.16
2018-05-12T10:32:46.021Z,24.14
2018-05-12T10:35:49.476Z,24.20
2018-05-12T10:38:52.892Z,24.32
2018-05-12T10:41:57.439Z,24.34
2018-05-12T10:45:00.850Z,24.47
2018-05-12T10:48:04.415Z,24.48
2018-05-12T10:51:07.972Z,24.31
2018-05-12T10:54:11.392Z,24.53
2018-05-12T10:57:15.150Z,24.78
2018-05-12T11:00:18.531Z,24.91
2018-05-12T11:03:22.951Z,24.93
2018-05-12T11:06:26.395Z,24.92
2018-05-12T11:09:29.651Z,25.08
2018-05-12T11:12:33.069Z,24.88
2018-05-12T11:15:36.556Z,24.97
2018-05-12T11:18:39.924Z,25.25
2018-05-12T11:21:43.256Z,25.38
2018-05-12T11:24:47.729Z,25.52
2018-05-12T11:27:52.081Z,25.62
2018-05-12T11:30:55.451Z,25.50
2018-05-12T11:33:58.877Z,25.47
2018-05-12T11:37:02.154Z,25.51
2018-05-12T11:40:07.016Z,25.66
2018-05-12T11:43:10.663Z,25.80
2018-05-12T11:46:14.231Z,25.78
2018-05-12T11:49:18.085Z,26.05
2018-05-12T11:52:23.667Z,26.10
2018-05-12T11:55:27.300Z,26.06
2018-05-12T11:58:31.121Z,25.99
2018-05-12T12:01:34.740Z,26.02
2018-05-12T12:04:38.688Z,26.16
2018-05-12T12:07:42.102Z,26.32
2018-05-12T12:10:45.774Z,26.44
2018-05-12T12:13:49.448Z,26.52
2018-05-12T12:16:52.754Z,26.61
2018-05-12T12:19:56.118Z,26.63
2018-05-12T12:22:59.522Z,26.60
2018-05-12T12:26:02.792Z,26.67
2018-05-12T12:29:06.214Z,26.60
2018-05-12T12:32:09.460Z,26.77
2018-05-12T12:35:18.632Z,26.84
2018-05-12T12:38:22.146Z,26.75
2018-05-12T12:41:25.473Z,26.68
2018-05-12T12:44:28.827Z,26.87
2018-05-12T12:47:32.131Z,27.10
2018-05-12T12:50:35.550Z,26.83
2018-05-12T12:53:38.964Z,26.80
2018-05-12T12:56:42.161Z,27.05
2018-05-12T12:59:46.600Z,27.19
2018-05-12T13:02:49.961Z,27.26
2018-05-12T13:05:54.325Z,27.23
2018-05-12T13:08:57.659Z,27.43
2018-05-12T13:12:00.835Z,27.44
2018-05-12T13:15:04.353Z,27.47
2018-05-12T13:18:08.641Z,27.59
2018-05-12T13:21:12.008Z,27.50
2018-05-12T13:24:15.290Z,27.65
2018-05-12T13:27:18.616Z,27.52
2018-05-12T13:30:21.863Z,27.65
2018-05-12T13:33:25.218Z,27.76
2018-05-12T13:36:29.723Z,27.78
2018-05-12T13:39:33.012Z,27.89
2018-05-12T13:42:36.197Z,27.81
2018-05-12T13:45:39.583Z,27.82
2018-05-12T13:48:43.069Z,27.70
2018-05-12T13:51:46.413Z,27.69
2018-05-12T13:54:50.767Z,27.83
2018-05-12T13:57:54.149Z,27.72
2018-05-12T14:00:57.984Z,27.89
2018-05-12T14:04:01.392Z,27.86
2018-05-12T14:07:04.989Z,27.72
2018-05-12T14:10:09.038Z,27.90
2018-05-12T14:13:13.014Z,27.97
2018-05-12T14:16:16.538Z,27.93
2018-05-12T14:19:20.179Z,27.92
2018-05-12T14:22:24.140Z,27.95
2018-05-12T14:25:29.083Z,28.00
2018-05-12T14:28:33.095Z,27.97
2018-05-12T14:31:36.755Z,27.91
2018-05-12T14:34:40.260Z,27.89
2018-05-12T14:37:44.128Z,27.65
2018-05-12T14:40:47.725Z,27.62
2018-05-12T14:43:51.735Z,27.52
2018-05-12T14:46:55.340Z,27.39
2018-05-12T14:50:00.802Z,27.49
2018-05-12T14:53:04.799Z,27.57
2018-05-12T14:56:08.431Z,27.57
2018-05-12T14:59:12.294Z,27.67
2018-05-12T15:02:16.331Z,27.53
2018-05-12T15:05:20.304Z,27.27
2018-05-12T15:08:24.429Z,27.24
2018-05-12T15:11:28.878Z,27.29
2018-05-12T15:14:32.552Z,27.66
2018-05-12T15:17:36.433Z,27.80
2018-05-12T15:20:40.419Z,27.66
2018-05-12T15:23:44.028Z,27.83
2018-05-12T15:26:47.978Z,27.89
2018-05-12T15:29:51.511Z,27.87
2018-05-12T15:32:55.476Z,27.80
2018-05-12T15:36:00.129Z,27.61
2018-05-12T15:39:04.095Z,27.60
2018-05-12T15:42:07.733Z,27.67
2018-05-12T15:45:11.387Z,27.83
2018-05-12T15:48:15.141Z,27.92
2018-05-12T15:51:18.736Z,27.94
2018-05-12T15:54:22.607Z,27.87
2018-05-12T15:57:26.746Z,27.91
2018-05-12T16:00:29.917Z,27.87
2018-05-12T16:03:33.092Z,27.77
2018-05-12T16:06:36.675Z,27.81
2018-05-12T16:09:39.976Z,27.94
2018-05-12T16:12:43.320Z,27.92
2018-05-12T16:15:47.084Z,27.99
2018-05-12T16:18:50.375Z,27.84
2018-05-12T16:21:53.814Z,27.77
2018-05-12T16:24:57.123Z,27.68
2018-05-12T16:28:00.542Z,27.59
2018-05-12T16:31:03.844Z,27.50
2018-05-12T16:34:07.138Z,27.37
2018-05-12T16:37:10.479Z,27.21
2018-05-12T16:40:14.071Z,27.12
2018-05-12T16:43:17.400Z,27.01
2018-05-12T16:46:20.803Z,26.95
2018-05-12T16:49:24.183Z,26.98
2018-05-12T16:52:28.650Z,26.86
2018-05-12T16:55:32.042Z,26.84
2018-05-12T16:58:35.252Z,26.79
2018-05-12T17:01:38.530Z,26.68
2018-05-12T17:04:41.742Z,26.56
2018-05-12T17:07:45.130Z,26.45
2018-05-12T17:10:48.480Z,26.41
2018-05-12T17:13:51.931Z,26.34
2018-05-12T17:16:55.266Z,26.22
2018-05-12T17:23:01.429Z,26.06
2018-05-12T17:26:04.780Z,25.98
2018-05-12T17:29:08.234Z,25.91
2018-05-12T17:32:11.499Z,25.89
2018-05-12T17:35:14.903Z,25.87
2018-05-12T17:38:18.286Z,25.90
2018-05-12T17:41:21.807Z,25.77
2018-05-12T17:44:25.257Z,25.68
2018-05-12T17:47:28.476Z,25.62
2018-05-12T17:50:32.270Z,25.56
2018-05-12T17:53:35.514Z,25.50
2018-05-12T17:56:38.913Z,25.48
2018-05-12T17:59:42.143Z,25.43
2018-05-12T18:02:45.407Z,25.38
2018-05-12T18:05:48.827Z,25.29
2018-05-12T18:08:52.091Z,25.26
2018-05-12T18:11:55.934Z,25.19
2018-05-12T18:14:59.277Z,25.13
2018-05-12T18:18:02.503Z,25.08
2018-05-12T18:21:05.851Z,25.07
2018-05-12T18:24:09.481Z,24.99
2018-05-12T18:27:13.220Z,24.83
2018-05-12T18:30:20.989Z,24.74
2018-05-12T18:33:24.296Z,24.66
2018-05-12T18:36:29.128Z,24.56
2018-05-12T18:39:32.692Z,24.40
2018-05-12T18:42:36.148Z,24.22
2018-05-12T18:45:39.887Z,24.03
2018-05-12T18:48:43.400Z,23.83
2018-05-12T18:51:46.783Z,23.67
2018-05-12T18:54:50.202Z,23.72
2018-05-12T18:57:53.527Z,23.75
2018-05-12T19:00:57.622Z,23.67
2018-05-12T19:04:00.932Z,23.66
2018-05-12T19:07:04.240Z,23.67
2018-05-12T19:10:07.657Z,23.50
2018-05-12T19:13:11.006Z,23.48
2018-05-12T19:16:14.351Z,23.46
2018-05-12T19:19:17.822Z,23.44
2018-05-12T19:22:21.222Z,23.45
2018-05-12T19:25:24.642Z,23.45
2018-05-12T19:28:28.867Z,23.42
2018-05-12T19:31:32.061Z,23.40
2018-05-12T19:34:35.459Z,23.41
2018-05-12T19:37:38.861Z,23.35
2018-05-12T19:40:42.526Z,23.28
2018-05-12T19:43:45.733Z,23.26
2018-05-12T19:46:49.128Z,23.25
2018-05-12T19:49:54.197Z,23.23
2018-05-12T19:52:57.503Z,23.23
2018-05-12T19:56:00.860Z,23.23
2018-05-12T19:59:05.272Z,23.23
2018-05-12T20:02:08.544Z,23.21
2018-05-12T20:05:11.883Z,23.16
2018-05-12T20:08:15.071Z,23.16
2018-05-12T20:11:18.498Z,23.12
2018-05-12T20:14:23.956Z,23.09
2018-05-12T20:17:27.387Z,23.08
2018-05-12T20:20:30.730Z,23.05
2018-05-12T20:23:33.965Z,23.04
2018-05-12T20:26:37.299Z,23.02
2018-05-12T20:29:40.726Z,22.98
2018-05-12T20:32:44.019Z,22.94
2018-05-12T20:35:47.818Z,22.92
2018-05-12T20:38:51.750Z,22.91
2018-05-12T20:41:55.969Z,22.82
2018-05-12T20:44:59.260Z,22.78
2018-05-12T20:48:02.530Z,22.71
2018-05-12T20:51:05.855Z,22.65
2018-05-12T20:54:09.095Z,22.60
2018-05-12T20:57:12.369Z,22.55
2018-05-12T21:00:15.525Z,22.51
2018-05-12T21:03:18.849Z,22.48
2018-05-12T21:06:22.879Z,22.42
2018-05-12T21:09:26.284Z,22.40
2018-05-12T21:12:29.620Z,22.38
2018-05-12T21:15:32.924Z,22.37
2018-05-12T21:18:36.249Z,22.36
2018-05-12T21:21:40.142Z,22.34
2018-05-12T21:24:43.478Z,22.26
2018-05-12T21:27:47.458Z,22.14
2018-05-12T21:30:52.302Z,21.95
2018-05-12T21:33:55.581Z,21.88
2018-05-12T21:37:01.281Z,21.76
2018-05-12T21:40:04.511Z,21.58
2018-05-12T21:43:08.285Z,21.56
2018-05-12T21:46:11.764Z,21.57
2018-05-12T21:49:14.964Z,21.69
2018-05-12T21:52:18.263Z,21.73
2018-05-12T21:55:22.744Z,21.80
2018-05-12T21:58:26.095Z,21.88
2018-05-12T22:01:29.402Z,21.96
2018-05-12T22:04:32.652Z,22.07
2018-05-12T22:07:35.988Z,22.06
2018-05-12T22:10:39.275Z,22.14
2018-05-12T22:13:42.576Z,21.97
2018-05-12T22:16:45.995Z,21.87
2018-05-12T22:19:49.379Z,21.80
2018-05-12T22:22:53.490Z,21.73
2018-05-12T22:25:56.895Z,21.67
2018-05-12T22:29:00.187Z,21.67
2018-05-12T22:32:04.147Z,21.67
2018-05-12T22:35:07.478Z,21.66
2018-05-12T22:38:10.635Z,21.60
2018-05-12T22:41:14.017Z,21.58
2018-05-12T22:44:17.399Z,21.58
2018-05-12T22:47:23.080Z,21.52
2018-05-12T22:50:26.355Z,21.51
2018-05-12T22:53:30.754Z,21.51
2018-05-12T22:56:33.928Z,21.51
2018-05-12T22:59:37.286Z,21.41
2018-05-12T23:02:40.722Z,21.31
2018-05-12T23:05:44.077Z,21.28
2018-05-12T23:08:47.316Z,21.29
2018-05-12T23:11:50.682Z,21.24
2018-05-12T23:14:54.055Z,21.19
2018-05-12T23:17:57.292Z,21.07
2018-05-12T23:21:00.642Z,21.06
2018-05-12T23:24:03.869Z,21.04
2018-05-12T23:27:07.771Z,21.05
2018-05-12T23:30:11.148Z,20.97
2018-05-12T23:33:14.461Z,21.01
2018-05-12T23:36:17.687Z,20.97
2018-05-12T23:39:21.062Z,20.96
2018-05-12T23:42:24.470Z,20.91
2018-05-12T23:45:27.709Z,20.59
2018-05-12T23:48:31.154Z,20.06
2018-05-12T23:51:34.636Z,19.82
2018-05-12T23:54:38.571Z,19.49
2018-05-12T23:57:41.968Z,19.10
